createdAt,value
2023-10-21T00:00:20.809Z,91.68
2023-10-21T00:01:22.039Z,91.69
2023-10-21T00:02:22.868Z,91.70
2023-10-21T00:03:20.978Z,91.72
2023-10-21T00:04:21.196Z,91.71
2023-10-21T00:05:20.395Z,91.76
2023-10-21T00:06:20.721Z,91.84
2023-10-21T00:07:17.577Z,91.89
2023-10-21T00:08:20.595Z,92.00
2023-10-21T00:09:17.996Z,92.02
2023-10-21T00:10:17.639Z,92.05
2023-10-21T00:11:18.334Z,92.06
2023-10-21T00:12:21.105Z,92.06
2023-10-21T00:13:20.740Z,92.10
2023-10-21T00:14:20.248Z,92.13
2023-10-21T00:15:20.587Z,92.16
2023-10-21T00:16:21.229Z,92.15
2023-10-21T00:17:21.264Z,92.17
2023-10-21T00:18:20.725Z,92.21
2023-10-21T00:19:18.302Z,92.24
2023-10-21T00:20:20.057Z,92.24
2023-10-21T00:21:20.783Z,92.30
2023-10-21T00:22:19.407Z,92.30
2023-10-21T00:23:19.068Z,92.27
2023-10-21T00:24:20.155Z,92.30
2023-10-21T00:25:19.367Z,92.38
2023-10-21T00:26:20.087Z,92.45
2023-10-21T00:27:19.304Z,92.44
2023-10-21T00:28:18.348Z,92.42
2023-10-21T00:29:18.126Z,92.42
2023-10-21T00:30:18.839Z,92.48
2023-10-21T00:31:17.253Z,92.50
2023-10-21T00:32:19.657Z,92.58
2023-10-21T00:33:19.161Z,92.68
2023-10-21T00:34:20.406Z,92.75
2023-10-21T00:35:19.701Z,92.83
2023-10-21T00:36:17.263Z,92.87
2023-10-21T00:37:20.669Z,92.90
2023-10-21T00:38:21.292Z,92.93
2023-10-21T00:39:20.408Z,92.97
2023-10-21T00:40:19.939Z,92.97
2023-10-21T00:41:20.918Z,93.00
2023-10-21T00:42:21.750Z,93.04
2023-10-21T00:43:20.834Z,93.04
2023-10-21T00:44:20.742Z,93.10
2023-10-21T00:45:20.142Z,93.17
2023-10-21T00:46:21.253Z,93.20
2023-10-21T00:47:18.624Z,93.19
2023-10-21T00:48:16.669Z,93.19
2023-10-21T00:49:18.674Z,93.20
2023-10-21T00:50:20.191Z,93.23
2023-10-21T00:51:19.606Z,93.30
2023-10-21T00:52:19.556Z,93.34
2023-10-21T00:53:20.789Z,93.37
2023-10-21T00:54:20.599Z,93.36
2023-10-21T00:55:19.031Z,93.39
2023-10-21T00:56:19.075Z,93.40
2023-10-21T00:57:18.410Z,93.41
2023-10-21T00:58:17.061Z,93.43
2023-10-21T00:59:18.028Z,93.48
2023-10-21T01:00:19.018Z,93.50
2023-10-21T01:01:20.221Z,93.47
2023-10-21T01:02:18.608Z,93.44
2023-10-21T01:03:19.071Z,93.43
2023-10-21T01:04:20.651Z,93.46
2023-10-21T01:05:20.743Z,93.44
2023-10-21T01:06:21.154Z,93.45
2023-10-21T01:07:20.105Z,93.47
2023-10-21T01:08:18.843Z,93.58
2023-10-21T01:09:18.812Z,93.61
2023-10-21T01:10:19.489Z,93.62
2023-10-21T01:11:20.297Z,93.62
2023-10-21T01:12:18.743Z,93.62
2023-10-21T01:13:17.755Z,93.59
2023-10-21T01:14:17.962Z,93.60
2023-10-21T01:15:15.989Z,93.66
2023-10-21T01:16:18.319Z,93.74
2023-10-21T01:17:19.112Z,93.76
2023-10-21T01:18:22.356Z,93.74
2023-10-21T01:19:20.580Z,93.79
2023-10-21T01:20:19.867Z,93.81
2023-10-21T01:21:20.008Z,93.81
2023-10-21T01:22:21.508Z,93.80
2023-10-21T01:23:20.493Z,93.83
2023-10-21T01:24:20.328Z,93.87
2023-10-21T01:25:18.800Z,93.86
2023-10-21T01:26:16.043Z,93.87
2023-10-21T01:27:17.912Z,93.88
2023-10-21T01:28:20.036Z,93.90
2023-10-21T01:29:20.297Z,93.89
2023-10-21T01:30:20.055Z,93.87
2023-10-21T01:31:21.396Z,93.91
2023-10-21T01:32:20.353Z,93.89
2023-10-21T01:33:21.931Z,93.90
2023-10-21T01:34:21.288Z,93.91
2023-10-21T01:35:19.174Z,93.92
2023-10-21T01:36:20.074Z,93.91
2023-10-21T01:37:18.108Z,93.93
2023-10-21T01:38:19.961Z,93.94
2023-10-21T01:39:16.373Z,93.94
2023-10-21T01:40:16.230Z,93.91
2023-10-21T01:41:16.257Z,93.91
2023-10-21T01:42:16.185Z,93.94
2023-10-21T01:43:17.440Z,93.94
2023-10-21T01:44:15.840Z,93.94
2023-10-21T01:45:18.613Z,93.96
2023-10-21T01:46:19.620Z,93.94
2023-10-21T01:47:16.147Z,93.92
2023-10-21T01:48:16.691Z,93.96
2023-10-21T01:49:18.735Z,93.96
2023-10-21T01:50:19.871Z,93.93
2023-10-21T01:51:18.057Z,93.95
2023-10-21T01:52:15.612Z,93.96
2023-10-21T01:53:17.173Z,93.96
2023-10-21T01:54:17.597Z,93.95
2023-10-21T01:55:20.166Z,93.94
2023-10-21T01:56:19.295Z,94.04
2023-10-21T01:57:19.157Z,94.07
2023-10-21T01:58:19.375Z,94.07
2023-10-21T01:59:18.560Z,94.06
2023-10-21T02:00:16.817Z,94.05
2023-10-21T02:01:20.201Z,94.04
2023-10-21T02:02:20.264Z,94.00
2023-10-21T02:03:20.975Z,94.04
2023-10-21T02:04:20.527Z,94.02
2023-10-21T02:05:20.635Z,94.02
2023-10-21T02:06:20.728Z,94.02
2023-10-21T02:07:20.485Z,93.96
2023-10-21T02:08:20.052Z,94.01
2023-10-21T02:09:19.964Z,94.06
2023-10-21T02:10:17.936Z,94.08
2023-10-21T02:11:20.190Z,94.10
2023-10-21T02:12:17.031Z,94.12
2023-10-21T02:13:19.488Z,94.10
2023-10-21T02:14:20.146Z,94.15
2023-10-21T02:15:20.028Z,94.17
2023-10-21T02:16:19.110Z,94.19
2023-10-21T02:17:19.758Z,94.18
2023-10-21T02:18:19.856Z,94.14
2023-10-21T02:19:17.609Z,94.13
2023-10-21T02:20:17.939Z,94.13
2023-10-21T02:21:19.405Z,94.18
2023-10-21T02:22:18.179Z,94.19
2023-10-21T02:23:19.851Z,94.18
2023-10-21T02:24:19.373Z,94.17
2023-10-21T02:25:20.404Z,94.20
2023-10-21T02:26:19.978Z,94.19
2023-10-21T02:27:19.380Z,94.16
2023-10-21T02:28:19.840Z,94.14
2023-10-21T02:29:19.868Z,94.13
2023-10-21T02:30:20.345Z,94.13
2023-10-21T02:31:21.914Z,94.17
2023-10-21T02:32:18.493Z,94.21
2023-10-21T02:33:20.118Z,94.24
2023-10-21T02:34:19.640Z,94.26
2023-10-21T02:35:18.670Z,94.24
2023-10-21T02:36:19.820Z,94.20
2023-10-21T02:37:20.995Z,94.17
2023-10-21T02:38:18.316Z,94.19
2023-10-21T02:39:19.786Z,94.23
2023-10-21T02:40:20.986Z,94.28
2023-10-21T02:41:19.927Z,94.32
2023-10-21T02:42:18.139Z,94.33
2023-10-21T02:43:19.145Z,94.34
2023-10-21T02:44:19.524Z,94.33
2023-10-21T02:45:19.197Z,94.28
2023-10-21T02:46:19.346Z,94.30
2023-10-21T02:47:17.588Z,94.36
2023-10-21T02:48:19.564Z,94.36
2023-10-21T02:49:20.044Z,94.37
2023-10-21T02:50:20.102Z,94.38
2023-10-21T02:51:20.686Z,94.41
2023-10-21T02:52:20.111Z,94.42
2023-10-21T02:53:20.332Z,94.44
2023-10-21T02:54:19.750Z,94.44
2023-10-21T02:55:20.143Z,94.44
2023-10-21T02:56:20.200Z,94.45
2023-10-21T02:57:19.014Z,94.45
2023-10-21T02:58:18.678Z,94.43
2023-10-21T02:59:16.976Z,94.45
2023-10-21T03:00:20.648Z,94.44
2023-10-21T03:01:22.119Z,94.50
2023-10-21T03:02:20.265Z,94.43
2023-10-21T03:03:20.108Z,94.47
2023-10-21T03:04:20.361Z,94.48
2023-10-21T03:05:20.065Z,94.51
2023-10-21T03:06:20.859Z,94.47
2023-10-21T03:07:23.490Z,94.43
2023-10-21T03:08:21.738Z,94.41
2023-10-21T03:09:21.702Z,94.41
2023-10-21T03:10:20.356Z,94.38
2023-10-21T03:11:21.242Z,94.35
2023-10-21T03:12:21.040Z,94.31
2023-10-21T03:13:19.681Z,94.31
2023-10-21T03:14:20.071Z,94.34
2023-10-21T03:15:21.126Z,94.33
2023-10-21T03:16:18.834Z,94.25
2023-10-21T03:17:18.386Z,94.18
2023-10-21T03:18:20.805Z,94.13
2023-10-21T03:19:20.774Z,94.11
2023-10-21T03:20:18.870Z,94.08
2023-10-21T03:21:20.317Z,94.08
2023-10-21T03:22:19.233Z,94.04
2023-10-21T03:23:19.911Z,94.00
2023-10-21T03:24:21.088Z,94
2023-10-21T03:25:21.975Z,94.07
2023-10-21T03:26:21.383Z,94.12
2023-10-21T03:27:18.366Z,94.05
2023-10-21T03:28:19.691Z,93.97
2023-10-21T03:29:20.370Z,93.90
2023-10-21T03:30:19.598Z,93.87
2023-10-21T03:31:18.585Z,93.86
2023-10-21T03:32:16.642Z,93.90
2023-10-21T03:33:19.274Z,93.94
2023-10-21T03:34:19.162Z,93.91
2023-10-21T03:35:17.862Z,93.85
2023-10-21T03:36:18.445Z,93.88
2023-10-21T03:37:19.407Z,93.95
2023-10-21T03:38:19.795Z,93.98
2023-10-21T03:39:21.003Z,93.93
2023-10-21T03:40:20.686Z,93.85
2023-10-21T03:41:20.401Z,93.73
2023-10-21T03:42:20.489Z,93.72
2023-10-21T03:43:20.365Z,93.79
2023-10-21T03:44:20.892Z,93.81
2023-10-21T03:45:18.093Z,93.87
2023-10-21T03:46:21.719Z,93.88
2023-10-21T03:47:20.626Z,93.78
2023-10-21T03:48:21.781Z,93.71
2023-10-21T03:49:20.710Z,93.78
2023-10-21T03:50:20.350Z,93.81
2023-10-21T03:51:20.286Z,93.80
2023-10-21T03:52:19.371Z,93.80
2023-10-21T03:53:19.805Z,93.81
2023-10-21T03:54:19.756Z,93.88
2023-10-21T03:55:21.164Z,93.90
2023-10-21T03:56:20.510Z,93.94
2023-10-21T03:57:21.678Z,94.04
2023-10-21T03:58:20.320Z,94.16
2023-10-21T03:59:21.566Z,94.23
2023-10-21T04:00:21.345Z,94.27
2023-10-21T04:01:21.106Z,94.27
2023-10-21T04:02:21.574Z,94.23
2023-10-21T04:03:20.937Z,94.17
2023-10-21T04:04:21.473Z,94.10
2023-10-21T04:05:20.542Z,94.08
2023-10-21T04:06:20.964Z,94.16
2023-10-21T04:07:20.419Z,94.24
2023-10-21T04:08:19.611Z,94.35
2023-10-21T04:09:20.369Z,94.40
2023-10-21T04:10:20.189Z,94.42
2023-10-21T04:11:19.846Z,94.43
2023-10-21T04:12:20.965Z,94.41
2023-10-21T04:13:21.325Z,94.39
2023-10-21T04:14:20.681Z,94.37
2023-10-21T04:15:20.688Z,94.33
2023-10-21T04:16:23.563Z,94.31
2023-10-21T04:17:23.120Z,94.25
2023-10-21T04:18:22.738Z,94.21
2023-10-21T04:19:21.842Z,94.11
2023-10-21T04:20:20.838Z,94.03
2023-10-21T04:21:18.537Z,93.94
2023-10-21T04:22:20.742Z,93.84
2023-10-21T04:23:20.464Z,93.71
2023-10-21T04:24:21.445Z,93.56
2023-10-21T04:25:20.537Z,93.49
2023-10-21T04:26:21.686Z,93.45
2023-10-21T04:27:21.849Z,93.42
2023-10-21T04:28:19.698Z,93.36
2023-10-21T04:29:18.711Z,93.29
2023-10-21T04:30:20.845Z,93.35
2023-10-21T04:31:19.559Z,93.41
2023-10-21T04:32:19.483Z,93.44
2023-10-21T04:33:18.299Z,93.44
2023-10-21T04:34:18.567Z,93.54
2023-10-21T04:35:20.826Z,93.62
2023-10-21T04:36:20.431Z,93.59
2023-10-21T04:37:19.961Z,93.49
2023-10-21T04:38:19.489Z,93.48
2023-10-21T04:39:20.921Z,93.45
2023-10-21T04:40:18.652Z,93.50
2023-10-21T04:41:17.554Z,93.50
2023-10-21T04:42:19.063Z,93.40
2023-10-21T04:43:21.375Z,93.29
2023-10-21T04:44:20.156Z,93.21
2023-10-21T04:45:19.997Z,93.21
2023-10-21T04:46:19.213Z,93.23
2023-10-21T04:47:19.084Z,93.19
2023-10-21T04:48:16.842Z,93.11
2023-10-21T04:49:17.944Z,93.12
2023-10-21T04:50:18.561Z,93.22
2023-10-21T04:51:20.516Z,93.23
2023-10-21T04:52:19.785Z,93.19
2023-10-21T04:53:20.709Z,93.26
2023-10-21T04:54:20.555Z,93.29
2023-10-21T04:55:24.330Z,93.36
2023-10-21T04:56:21.935Z,93.42
2023-10-21T04:57:17.538Z,93.48
2023-10-21T04:58:19.973Z,93.51
2023-10-21T04:59:22.002Z,93.54
2023-10-21T05:00:21.478Z,93.50
2023-10-21T05:01:21.880Z,93.49
2023-10-21T05:02:19.684Z,93.44
2023-10-21T05:03:22.052Z,93.35
2023-10-21T05:04:19.945Z,93.29
2023-10-21T05:05:20.997Z,93.21
2023-10-21T05:06:20.504Z,93.15
2023-10-21T05:07:19.266Z,93.11
2023-10-21T05:08:18.400Z,93.01
2023-10-21T05:09:20.821Z,92.96
2023-10-21T05:10:18.985Z,92.89
2023-10-21T05:11:20.377Z,92.86
2023-10-21T05:12:21.212Z,92.87
2023-10-21T05:13:22.092Z,92.91
2023-10-21T05:14:21.702Z,92.90
2023-10-21T05:15:18.838Z,92.87
2023-10-21T05:16:20.160Z,92.83
2023-10-21T05:17:20.017Z,92.78
2023-10-21T05:18:20.508Z,92.73
2023-10-21T05:19:22.669Z,92.72
2023-10-21T05:20:17.663Z,92.79
2023-10-21T05:21:20.095Z,92.73
2023-10-21T05:22:17.829Z,92.75
2023-10-21T05:23:20.597Z,92.76
2023-10-21T05:24:20.459Z,92.81
2023-10-21T05:25:20.600Z,92.85
2023-10-21T05:26:19.101Z,92.72
2023-10-21T05:27:20.453Z,92.57
2023-10-21T05:28:20.168Z,92.45
2023-10-21T05:29:18.325Z,92.59
2023-10-21T05:30:20.010Z,92.66
2023-10-21T05:31:19.144Z,92.65
2023-10-21T05:32:20.138Z,92.74
2023-10-21T05:33:21.417Z,92.70
2023-10-21T05:34:21.787Z,92.64
2023-10-21T05:35:21.493Z,92.68
2023-10-21T05:36:20.261Z,92.66
2023-10-21T05:37:20.287Z,92.57
2023-10-21T05:38:20.279Z,92.38
2023-10-21T05:39:19.143Z,92.46
2023-10-21T05:40:17.410Z,92.56
2023-10-21T05:41:16.523Z,92.60
2023-10-21T05:42:17.669Z,92.54
2023-10-21T05:43:16.401Z,92.51
2023-10-21T05:44:23.070Z,92.52
2023-10-21T05:45:18.307Z,92.49
2023-10-21T05:46:20.989Z,92.51
2023-10-21T05:47:20.739Z,92.52
2023-10-21T05:48:20.100Z,92.58
2023-10-21T05:49:22.611Z,92.55
2023-10-21T05:50:21.101Z,92.55
2023-10-21T05:51:20.235Z,92.62
2023-10-21T05:52:19.917Z,92.65
2023-10-21T05:53:18.529Z,92.66
2023-10-21T05:54:19.806Z,92.61
2023-10-21T05:55:21.014Z,92.55
2023-10-21T05:56:22.053Z,92.58
2023-10-21T05:57:20.703Z,92.64
2023-10-21T05:58:20.734Z,92.56
2023-10-21T05:59:20.938Z,92.44
2023-10-21T06:00:20.112Z,92.28
2023-10-21T06:01:23.372Z,92.18
2023-10-21T06:02:20.289Z,92.09
2023-10-21T06:03:22.335Z,92.01
2023-10-21T06:04:22.209Z,91.87
2023-10-21T06:05:21.397Z,91.76
2023-10-21T06:06:21.995Z,91.80
2023-10-21T06:07:22.397Z,91.83
2023-10-21T06:08:20.633Z,91.96
2023-10-21T06:09:21.078Z,92.11
2023-10-21T06:10:19.808Z,92.17
2023-10-21T06:11:20.280Z,92.30
2023-10-21T06:12:20.986Z,92.27
2023-10-21T06:13:21.063Z,92.15
2023-10-21T06:14:20.605Z,92.00
2023-10-21T06:15:23.623Z,91.81
2023-10-21T06:16:21.316Z,91.78
2023-10-21T06:17:19.987Z,91.72
2023-10-21T06:18:20.954Z,91.52
2023-10-21T06:19:17.770Z,91.30
2023-10-21T06:20:18.040Z,91.12
2023-10-21T06:21:19.131Z,91.03
2023-10-21T06:22:20.453Z,91.09
2023-10-21T06:23:21.194Z,90.94
2023-10-21T06:24:19.704Z,90.75
2023-10-21T06:25:20.301Z,90.75
2023-10-21T06:26:21.623Z,90.79
2023-10-21T06:27:20.682Z,90.57
2023-10-21T06:28:22.044Z,90.45
2023-10-21T06:29:21.064Z,90.46
2023-10-21T06:30:21.411Z,90.38
2023-10-21T06:31:21.206Z,90.12
2023-10-21T06:32:21.146Z,89.98
2023-10-21T06:33:21.680Z,89.90
2023-10-21T06:34:19.453Z,89.83
2023-10-21T06:35:20.878Z,89.61
2023-10-21T06:36:20.511Z,89.62
2023-10-21T06:37:21.258Z,89.36
2023-10-21T06:38:22.639Z,89.47
2023-10-21T06:39:19.949Z,89.22
2023-10-21T06:40:35.753Z,89.05
2023-10-21T06:42:10.131Z,89.18
2023-10-21T06:42:23.692Z,89.29
2023-10-21T06:43:19.415Z,89.41
2023-10-21T06:44:19.839Z,89.45
2023-10-21T06:45:20.212Z,89.33
2023-10-21T06:46:24.389Z,89.19
2023-10-21T06:47:21.245Z,89.24
2023-10-21T06:48:20.810Z,89.27
2023-10-21T06:49:21.030Z,89.35
2023-10-21T06:50:18.936Z,89.42
2023-10-21T06:51:20.617Z,89.50
2023-10-21T06:52:20.177Z,89.66
2023-10-21T06:53:21.138Z,89.67
2023-10-21T06:54:20.393Z,89.55
2023-10-21T06:55:21.008Z,89.36
2023-10-21T06:56:24.057Z,89.29
2023-10-21T06:57:22.937Z,89.42
2023-10-21T06:58:21.299Z,89.33
2023-10-21T06:59:22.778Z,89.21
2023-10-21T07:00:22.535Z,89.10
2023-10-21T07:01:21.324Z,89.25
2023-10-21T07:02:21.404Z,89.23
2023-10-21T07:03:21.936Z,89.08
2023-10-21T07:04:20.643Z,88.86
2023-10-21T07:05:19.708Z,88.63
2023-10-21T07:06:18.207Z,88.75
2023-10-21T07:07:19.491Z,88.91
2023-10-21T07:08:18.080Z,88.82
2023-10-21T07:09:20.811Z,88.71
2023-10-21T07:10:20.886Z,88.44
2023-10-21T07:11:18.918Z,88.15
2023-10-21T07:12:20.189Z,88.26
2023-10-21T07:13:19.545Z,88.20
2023-10-21T07:14:19.272Z,88.18
2023-10-21T07:15:22.238Z,88.29
2023-10-21T07:16:21.666Z,88.24
2023-10-21T07:17:21.839Z,88.38
2023-10-21T07:18:22.469Z,88.36
2023-10-21T07:19:23.793Z,88.36
2023-10-21T07:20:23.903Z,88.35
2023-10-21T07:21:23.557Z,88.31
2023-10-21T07:22:22.834Z,88.40
2023-10-21T07:23:21.198Z,87.48
2023-10-21T07:24:21.483Z,87.20
2023-10-21T07:25:21.628Z,87.06
2023-10-21T07:26:21.252Z,87.19
2023-10-21T07:27:21.088Z,87.61
2023-10-21T07:28:20.954Z,87.78
2023-10-21T07:29:22.639Z,87.73
2023-10-21T07:30:21.087Z,87.71
2023-10-21T07:31:21.017Z,87.55
2023-10-21T07:32:26.867Z,86.93
2023-10-21T07:33:23.388Z,86.97
2023-10-21T07:34:22.167Z,87.30
2023-10-21T07:35:22.114Z,86.94
2023-10-21T07:36:21.460Z,86.43
2023-10-21T07:37:20.969Z,86.63
2023-10-21T07:38:18.302Z,85.98
2023-10-21T07:39:19.899Z,86.05
2023-10-21T07:40:21.002Z,86.45
2023-10-21T07:41:21.267Z,86.44
2023-10-21T07:42:20.896Z,86.14
2023-10-21T07:43:21.345Z,86.18
2023-10-21T07:44:23.038Z,86.26
2023-10-21T07:45:21.989Z,86.64
2023-10-21T07:46:20.956Z,86.64
2023-10-21T07:47:21.160Z,86.04
2023-10-21T07:48:19.518Z,85.52
2023-10-21T07:49:19.139Z,85.94
2023-10-21T07:50:25.985Z,86.41
2023-10-21T07:51:22.488Z,86.50
2023-10-21T07:52:21.052Z,86.64
2023-10-21T07:53:20.679Z,86.51
2023-10-21T07:54:20.008Z,86.16
2023-10-21T07:55:20.818Z,86.20
2023-10-21T07:56:20.457Z,86.08
2023-10-21T07:57:20.389Z,86.19
2023-10-21T07:58:20.979Z,86.31
2023-10-21T07:59:22.110Z,86.36
2023-10-21T08:00:22.145Z,86.35
2023-10-21T08:01:23.490Z,86.37
2023-10-21T08:02:21.112Z,86.23
2023-10-21T08:03:19.582Z,85.5
2023-10-21T08:04:19.106Z,85.26
2023-10-21T08:05:21.261Z,85
2023-10-21T08:06:21.228Z,85.17
2023-10-21T08:07:20.220Z,85.30
2023-10-21T08:08:20.200Z,85.37
2023-10-21T08:09:19.772Z,85.41
2023-10-21T08:10:20.347Z,85.27
2023-10-21T08:11:21.376Z,85.19
2023-10-21T08:12:20.788Z,85.22
2023-10-21T08:13:21.555Z,84.87
2023-10-21T08:14:21.229Z,84.52
2023-10-21T08:15:22.587Z,84.86
2023-10-21T08:16:21.819Z,84.30
2023-10-21T08:17:22.878Z,84.41
2023-10-21T08:18:24.234Z,84.46
2023-10-21T08:19:23.472Z,83.61
2023-10-21T08:20:21.135Z,83.81
2023-10-21T08:21:21.902Z,84.33
2023-10-21T08:22:18.442Z,83.66
2023-10-21T08:23:19.162Z,82.80
2023-10-21T08:24:19.999Z,83.05
2023-10-21T08:25:21.602Z,83.08
2023-10-21T08:26:19.957Z,82.81
2023-10-21T08:27:20.840Z,83.16
2023-10-21T08:28:20.320Z,83.05
2023-10-21T08:29:20.313Z,82.54
2023-10-21T08:30:18.649Z,81.91
2023-10-21T08:31:19.863Z,81.91
2023-10-21T08:32:19.662Z,82.34
2023-10-21T08:33:20.307Z,82.08
2023-10-21T08:34:20.784Z,81.44
2023-10-21T08:35:21.356Z,81.47
2023-10-21T08:36:21.244Z,81.73
2023-10-21T08:37:20.984Z,81.55
2023-10-21T08:38:21.961Z,81.36
2023-10-21T08:39:21.181Z,81.02
2023-10-21T08:40:21.217Z,80.98
2023-10-21T08:41:21.218Z,81.01
2023-10-21T08:42:20.891Z,80.68
2023-10-21T08:43:50.615Z,80.72
2023-10-21T08:44:28.109Z,80.48
2023-10-21T08:45:22.277Z,80.49
2023-10-21T08:46:24.108Z,80.63
2023-10-21T08:47:21.513Z,80.63
2023-10-21T08:48:21.217Z,80.56
2023-10-21T08:49:22.878Z,80.80
2023-10-21T08:50:20.917Z,81.13
2023-10-21T08:51:20.668Z,81.51
2023-10-21T08:52:21.447Z,81.95
2023-10-21T08:53:19.994Z,81.65
2023-10-21T08:54:20.943Z,81.67
2023-10-21T08:55:20.433Z,82.05
2023-10-21T08:56:21.149Z,82.42
2023-10-21T08:57:21.400Z,82.80
2023-10-21T08:58:21.156Z,82.90
2023-10-21T08:59:19.905Z,82.92
2023-10-21T09:00:20.978Z,82.88
2023-10-21T09:01:22.382Z,82.68
2023-10-21T09:02:21.901Z,82.61
2023-10-21T09:03:23.877Z,82.82
2023-10-21T09:04:23.641Z,83.01
2023-10-21T09:05:21.761Z,83.19
2023-10-21T09:06:20.491Z,83.05
2023-10-21T09:07:23.962Z,83.16
2023-10-21T09:08:19.061Z,83.35
2023-10-21T09:09:21.426Z,83.35
2023-10-21T09:10:21.295Z,83.30
2023-10-21T09:11:20.830Z,83.39
2023-10-21T09:12:20.665Z,83.23
2023-10-21T09:13:20.353Z,83.31
2023-10-21T09:14:20.342Z,83.40
2023-10-21T09:15:21.104Z,83.17
2023-10-21T09:16:21.826Z,83.13
2023-10-21T09:17:22.033Z,83.25
2023-10-21T09:18:24.864Z,83.15
2023-10-21T09:19:23.056Z,82.66
2023-10-21T09:20:21.159Z,82.55
2023-10-21T09:21:23.354Z,82.05
2023-10-21T09:22:21.867Z,81.71
2023-10-21T09:23:21.933Z,81.11
2023-10-21T09:24:22.707Z,80.44
2023-10-21T09:25:22.144Z,80.19
2023-10-21T09:26:23.197Z,80.33
2023-10-21T09:27:24.585Z,80.34
2023-10-21T09:28:24.802Z,80.16
2023-10-21T09:29:24.936Z,80
2023-10-21T09:30:27.396Z,80.02
2023-10-21T09:31:26.472Z,79.86
2023-10-21T09:32:26.402Z,79.95
2023-10-21T09:33:26.800Z,80.05
2023-10-21T09:34:26.489Z,80.13
2023-10-21T09:35:27.390Z,80.20
2023-10-21T09:36:58.441Z,80.28
2023-10-21T09:37:27.372Z,79.86
2023-10-21T09:38:24.880Z,79.41
2023-10-21T09:39:24.503Z,79.61
2023-10-21T09:40:25.453Z,79.95
2023-10-21T09:41:26.178Z,79.75
2023-10-21T09:42:25.263Z,79.54
2023-10-21T09:43:23.080Z,79.60
2023-10-21T09:44:22.256Z,79.65
2023-10-21T09:45:23.877Z,79.69
2023-10-21T09:46:22.055Z,79.49
2023-10-21T09:47:22.764Z,79.10
2023-10-21T09:48:19.613Z,79.38
2023-10-21T09:49:21.604Z,79.49
2023-10-21T09:50:19.444Z,79.69
2023-10-21T09:51:21.740Z,79.81
2023-10-21T09:52:21.473Z,79.83
2023-10-21T09:53:21.426Z,79.92
2023-10-21T09:54:19.576Z,80.03
2023-10-21T09:55:21.425Z,79.96
2023-10-21T09:56:23.520Z,79.92
2023-10-21T09:57:23.891Z,79.17
2023-10-21T09:58:25.290Z,79.22
2023-10-21T09:59:24.932Z,79.26
2023-10-21T10:00:23.525Z,79.69
2023-10-21T10:01:23.061Z,79.94
2023-10-21T10:02:21.059Z,80.24
2023-10-21T10:03:21.654Z,80.09
2023-10-21T10:04:21.822Z,80.32
2023-10-21T10:05:22.723Z,80.33
2023-10-21T10:08:24.046Z,81.38
2023-10-21T10:09:22.591Z,81.65
2023-10-21T10:10:22.390Z,81.70
2023-10-21T10:11:23.185Z,81.87
2023-10-21T10:12:21.351Z,82.18
2023-10-21T10:13:19.251Z,82.56
2023-10-21T10:14:22.995Z,82.80
2023-10-21T10:15:22.856Z,83.06
2023-10-21T10:16:23.425Z,83.33
2023-10-21T10:17:23.711Z,83.48
2023-10-21T10:18:23.936Z,83.62
2023-10-21T10:19:24.475Z,83.47
2023-10-21T10:20:25.927Z,83.37
2023-10-21T10:21:24.925Z,83.34
2023-10-21T10:22:24.822Z,83.17
2023-10-21T10:23:25.189Z,82.97
2023-10-21T10:24:26.230Z,83.07
2023-10-21T10:25:25.654Z,83.26
2023-10-21T10:26:24.439Z,83.24
2023-10-21T10:27:27.358Z,83.37
2023-10-21T10:28:25.705Z,83.70
2023-10-21T10:29:24.816Z,83.73
2023-10-21T10:30:27.042Z,83.51
2023-10-21T10:31:28.120Z,83.44
2023-10-21T10:32:28.706Z,83.45
2023-10-21T10:33:25.122Z,83.41
2023-10-21T10:34:27.056Z,83.20
2023-10-21T10:35:27.709Z,83.23
2023-10-21T10:36:26.202Z,83.31
2023-10-21T10:37:26.913Z,83.24
2023-10-21T10:38:25.917Z,83.22
2023-10-21T10:39:27.147Z,83.19
2023-10-21T10:40:26.405Z,83.21
2023-10-21T10:41:28.524Z,83.09
2023-10-21T10:42:26.950Z,83.07
2023-10-21T10:43:26.486Z,82.93
2023-10-21T10:44:24.604Z,83
2023-10-21T10:45:27.517Z,82.80
2023-10-21T10:46:26.592Z,82.59
2023-10-21T10:47:28.215Z,82.08
2023-10-21T10:48:27.416Z,81.79
2023-10-21T10:49:26.498Z,81.68
2023-10-21T10:50:27.765Z,81.66
2023-10-21T10:51:26.393Z,81.01
2023-10-21T10:52:23.141Z,80.45
2023-10-21T10:53:23.428Z,80.25
2023-10-21T10:54:23.315Z,80.11
2023-10-21T10:55:24.222Z,79.97
2023-10-21T10:56:26.464Z,79.51
2023-10-21T10:57:26.380Z,79.69
2023-10-21T10:58:26.699Z,79.77
2023-10-21T10:59:23.951Z,80.08
2023-10-21T11:00:26.831Z,79.84
2023-10-21T11:01:26.491Z,80.11
2023-10-21T11:02:26.704Z,80.19
2023-10-21T11:03:26.154Z,80.20
2023-10-21T11:04:27.593Z,80.12
2023-10-21T11:05:25.536Z,80.16
2023-10-21T11:06:28.841Z,79.75
2023-10-21T11:07:27.227Z,79.84
2023-10-21T11:08:27.731Z,79.77
2023-10-21T11:09:27.610Z,79.23
2023-10-21T11:10:25.691Z,79.09
2023-10-21T11:11:27.180Z,79.27
2023-10-21T11:13:06.151Z,79.44
2023-10-21T11:13:25.677Z,79.31
2023-10-21T11:14:20.225Z,79.45
2023-10-21T11:15:10.858Z,79.58
2023-10-21T11:16:12.907Z,79.66
2023-10-21T11:17:16.805Z,79.48
2023-10-21T11:18:20.846Z,79.44
2023-10-21T11:19:21.295Z,79.51
2023-10-21T11:20:23.795Z,78.76
2023-10-21T11:21:25.279Z,78.54
2023-10-21T11:22:28.007Z,78.48
2023-10-21T11:23:28.368Z,78.58
2023-10-21T11:24:31.619Z,78.52
2023-10-21T11:25:27.562Z,78.54
2023-10-21T11:26:27.779Z,78.55
2023-10-21T11:27:25.847Z,78.69
2023-10-21T11:28:25.285Z,78.68
2023-10-21T11:29:27.321Z,78.73
2023-10-21T11:30:27.492Z,78.61
2023-10-21T11:31:25.877Z,78.25
2023-10-21T11:32:22.931Z,77.93
2023-10-21T11:33:22.719Z,77.83
2023-10-21T11:34:24.264Z,76.65
2023-10-21T11:35:24.886Z,76.09
2023-10-21T11:36:25.381Z,75.74
2023-10-21T11:37:27.144Z,75.31
2023-10-21T11:38:27.671Z,75.38
2023-10-21T11:39:25.458Z,75.23
2023-10-21T11:40:29.084Z,74.80
2023-10-21T11:41:26.665Z,74.09
2023-10-21T11:42:25.906Z,73.44
2023-10-21T11:43:23.476Z,73.59
2023-10-21T11:44:23.602Z,73.05
2023-10-21T11:45:22.385Z,72.98
2023-10-21T11:46:21.265Z,73.03
2023-10-21T11:47:20.170Z,73.21
2023-10-21T11:48:20.397Z,73.25
2023-10-21T11:49:22.974Z,73.26
2023-10-21T11:50:22.539Z,73.15
2023-10-21T11:51:24.129Z,73.04
2023-10-21T11:52:25.326Z,72.92
2023-10-21T11:53:24.941Z,72.71
2023-10-21T11:54:24.515Z,73.04
2023-10-21T11:55:26.218Z,72.70
2023-10-21T11:56:24.637Z,72.76
2023-10-21T11:57:25.178Z,73.15
2023-10-21T11:58:26.436Z,72.76
2023-10-21T11:59:26.133Z,72.20
2023-10-21T12:00:25.566Z,72.01
2023-10-21T12:01:25.778Z,72.06
2023-10-21T12:02:26.447Z,72.58
2023-10-21T12:03:25.539Z,71.86
2023-10-21T12:04:24.535Z,71.30
2023-10-21T12:05:26.859Z,71.47
2023-10-21T12:06:27.415Z,71.83
2023-10-21T12:07:26.739Z,71.66
2023-10-21T12:08:26.935Z,71.04
2023-10-21T12:09:26.710Z,71.03
2023-10-21T12:10:25.321Z,70.96
2023-10-21T12:11:27.728Z,71.26
2023-10-21T12:12:26.014Z,71.77
2023-10-21T12:13:26.185Z,71.61
2023-10-21T12:14:24.750Z,70.69
2023-10-21T12:15:25.572Z,70.11
2023-10-21T12:16:27.531Z,70.09
2023-10-21T12:18:12.001Z,70.41
2023-10-21T12:18:26.872Z,70.28
2023-10-21T12:19:22.074Z,69.84
2023-10-21T12:20:26.340Z,70.16
2023-10-21T12:21:24.525Z,69.94
2023-10-21T12:22:22.425Z,70.20
2023-10-21T12:23:21.864Z,70.30
2023-10-21T12:24:24.967Z,70.06
2023-10-21T12:25:23.959Z,69.73
2023-10-21T12:26:25.432Z,70.07
2023-10-21T12:27:26.021Z,69.84
2023-10-21T12:28:26.649Z,69.69
2023-10-21T12:29:24.407Z,69.08
2023-10-21T12:30:25.633Z,69.5
2023-10-21T12:31:27.494Z,69.78
2023-10-21T12:32:25.933Z,69.90
2023-10-21T12:33:26.481Z,70.02
2023-10-21T12:34:26.602Z,69.69
2023-10-21T12:35:26.728Z,69.66
2023-10-21T12:36:23.304Z,69.80
2023-10-21T12:37:22.052Z,70.21
2023-10-21T12:38:24.455Z,70.52
2023-10-21T12:39:23.872Z,70.50
2023-10-21T12:40:24.598Z,70.64
2023-10-21T12:41:27.063Z,70.72
2023-10-21T12:42:24.284Z,70.93
2023-10-21T12:43:24.751Z,70.71
2023-10-21T12:44:23.812Z,70.70
2023-10-21T12:45:26.157Z,70.54
2023-10-21T12:46:28.022Z,71.08
2023-10-21T12:47:26.454Z,71.42
2023-10-21T12:48:24.870Z,71.16
2023-10-21T12:49:27.427Z,70.72
2023-10-21T12:50:25.312Z,70.80
2023-10-21T12:51:23.661Z,70.69
2023-10-21T12:52:23.592Z,70.82
2023-10-21T12:53:27.247Z,71.03
2023-10-21T12:55:02.807Z,70.72
2023-10-21T12:55:23.793Z,70.56